Time;durP1;ratioP1;P1;durP2;ratioP2;P2;SDS_P1;SDS_P2;PMS_P1;PMS_P2;Temp;Humidity;BMP_temperature;BMP_pressure;BME280_temperature;BME280_humidity;BME280_pressure;Samples;Min_cycle;Max_cycle;Signal;HPM_P1;HPM_P2
2024/01/17 05:22:32;;;;;;;3.58;2.67;;;;;;;-2.49;100.00;98436.75;5110136;27;20829;-34
2024/01/17 05:24:58;;;;;;;6.65;2.85;;;;;;;-2.28;100.00;98434.06;5110068;28;20086;-34
2024/01/17 05:27:24;;;;;;;3.97;2.92;;;;;;;-2.02;100.00;98431.75;5109933;28;20039;-33
2024/01/17 05:29:49;;;;;;;6.13;3.50;;;;;;;-1.86;100.00;98425.97;5112688;28;20050;-34
2024/01/17 05:32:14;;;;;;;8.18;3.53;;;;;;;-1.82;100.00;98419.50;5116869;28;20039;-34
2024/01/17 05:34:42;;;;;;;6.32;3.63;;;;;;;-1.68;100.00;98411.25;5117484;28;20100;-34
2024/01/17 05:37:10;;;;;;;4.90;3.10;;;;;;;-1.69;100.00;98414.00;5116478;28;20039;-35
2024/01/17 05:39:35;;;;;;;4.78;2.95;;;;;;;-1.92;100.00;98409.06;5109652;28;20036;-33
2024/01/17 05:42:01;;;;;;;6.05;3.88;;;;;;;-1.84;100.00;98404.94;5109453;28;20063;-34
2024/01/17 05:44:26;;;;;;;6.85;4.13;;;;;;;-1.68;100.00;98395.56;5109347;28;20526;-34
2024/01/17 05:46:51;;;;;;;8.93;4.18;;;;;;;-1.69;100.00;98403.56;5108058;28;20119;-33
2024/01/17 05:49:17;;;;;;;5.30;3.72;;;;;;;-1.86;100.00;98391.22;5109326;28;20415;-34
2024/01/17 05:51:42;;;;;;;5.93;3.88;;;;;;;-1.64;100.00;98378.66;5109338;28;20103;-34
2024/01/17 05:54:08;;;;;;;6.85;3.88;;;;;;;-2.09;100.00;98357.56;5109455;28;20491;-33
2024/01/17 05:56:34;;;;;;;6.00;3.85;;;;;;;-1.67;100.00;98359.84;5109084;28;20103;-34
2024/01/17 05:58:59;;;;;;;7.25;3.78;;;;;;;-1.46;100.00;98357.03;5109197;28;20046;-35
2024/01/17 06:01:25;;;;;;;8.52;3.95;;;;;;;-1.51;100.00;98357.44;5109297;28;20044;-33
2024/01/17 06:03:50;;;;;;;6.38;4.28;;;;;;;-1.88;100.00;98351.38;5109255;28;20526;-36
2024/01/17 06:06:17;;;;;;;6.47;3.88;;;;;;;-1.70;100.00;98340.03;5109223;28;20067;-34
2024/01/17 06:08:42;;;;;;;6.45;3.95;;;;;;;-1.95;100.00;98333.69;5108859;28;20517;-33
2024/01/17 06:11:08;;;;;;;6.32;3.75;;;;;;;-1.94;100.00;98331.88;5109108;28;20063;-34
2024/01/17 06:13:33;;;;;;;7.85;4.47;;;;;;;-1.53;100.00;98333.28;5109232;28;20145;-34
2024/01/17 06:15:58;;;;;;;6.47;3.88;;;;;;;-1.34;100.00;98336.78;5108958;28;20044;-33
2024/01/17 06:18:24;;;;;;;5.82;4.05;;;;;;;-1.62;100.00;98318.47;5108648;28;20064;-34
2024/01/17 06:20:49;;;;;;;7.05;5.00;;;;;;;-1.69;100.00;98310.38;5108584;28;20410;-34
2024/01/17 06:23:14;;;;;;;6.15;4.15;;;;;;;-1.66;100.00;98312.69;5109024;28;20043;-33
2024/01/17 06:25:40;;;;;;;8.77;4.65;;;;;;;-1.60;100.00;98307.88;5108632;28;20047;-34
2024/01/17 06:28:05;;;;;;;7.32;5.32;;;;;;;-1.59;100.00;98302.50;5108240;28;20036;-33
2024/01/17 06:30:30;;;;;;;6.45;4.60;;;;;;;-1.62;100.00;98300.19;5108674;28;20123;-33
2024/01/17 06:32:56;;;;;;;7.13;5.22;;;;;;;-1.36;100.00;98305.59;5100293;28;20036;-34
2024/01/17 06:35:21;;;;;;;5.57;4.55;;;;;;;-1.63;100.00;98293.34;5094734;28;20035;-33
2024/01/17 06:37:47;;;;;;;6.35;4.68;;;;;;;-1.44;100.00;98285.38;5094442;28;20131;-33
2024/01/17 06:40:12;;;;;;;7.53;4.43;;;;;;;-1.50;100.00;98278.16;5094060;28;20040;-34
2024/01/17 06:42:38;;;;;;;6.78;4.57;;;;;;;-1.75;100.00;98269.19;5094634;28;20495;-34
2024/01/17 06:45:04;;;;;;;7.00;5.18;;;;;;;-1.43;100.00;98268.78;5094805;28;20550;-34
2024/01/17 06:47:29;;;;;;;7.75;4.50;;;;;;;-1.27;100.00;98268.13;5094469;28;20032;-33
2024/01/17 06:49:55;;;;;;;6.97;4.38;;;;;;;-1.06;100.00;98260.00;5094392;28;20093;-33
2024/01/17 06:52:20;;;;;;;8.70;4.68;;;;;;;-1.06;100.00;98252.16;5094583;28;20043;-35
2024/01/17 06:54:46;;;;;;;7.55;4.75;;;;;;;-1.25;100.00;98255.72;5094489;28;20064;-34
2024/01/17 06:57:11;;;;;;;6.93;4.43;;;;;;;-1.28;100.00;98240.34;5094248;28;20032;-35
2024/01/17 06:59:37;;;;;;;7.80;5.03;;;;;;;-1.11;100.00;98246.56;5094154;28;20431;-35
2024/01/17 07:02:03;;;;;;;7.30;5.13;;;;;;;-0.92;100.00;98241.19;5094231;28;20032;-35
2024/01/17 07:04:28;;;;;;;6.78;4.10;;;;;;;-1.20;100.00;98242.22;5094261;28;20491;-35
2024/01/17 07:06:53;;;;;;;5.70;4.07;;;;;;;-1.14;100.00;98241.66;5094178;28;20050;-34
2024/01/17 07:09:19;;;;;;;10.70;4.70;;;;;;;-1.19;100.00;98233.41;5094218;28;20047;-35
2024/01/17 07:11:44;;;;;;;7.28;4.30;;;;;;;-1.46;100.00;98224.66;5092976;28;20135;-35
2024/01/17 07:14:09;;;;;;;7.13;4.47;;;;;;;-1.48;100.00;98221.38;5094552;28;20093;-34
2024/01/17 07:16:35;;;;;;;6.18;3.95;;;;;;;-1.37;100.00;98220.31;5094445;28;20055;-35
2024/01/17 07:19:00;;;;;;;6.18;4.22;;;;;;;-1.24;100.00;98219.97;5094271;28;20099;-34
2024/01/17 07:21:26;;;;;;;7.45;4.35;;;;;;;-1.22;100.00;98213.66;5095598;28;20044;-34
2024/01/17 07:23:52;;;;;;;6.07;4.18;;;;;;;-1.40;100.00;98212.78;5108025;28;20042;-34
2024/01/17 07:26:17;;;;;;;6.85;4.05;;;;;;;-1.34;100.00;98203.56;5109939;28;20051;-35
2024/01/17 07:28:42;;;;;;;5.80;4.07;;;;;;;-1.18;100.00;98204.53;5092980;28;20093;-34
2024/01/17 07:31:08;;;;;;;8.13;4.47;;;;;;;-1.02;100.00;98193.41;5093036;28;20066;-33
2024/01/17 07:33:33;;;;;;;5.50;4.03;;;;;;;-0.89;100.00;98198.28;5092329;28;20131;-35
2024/01/17 07:35:59;;;;;;;7.75;4.00;;;;;;;-1.12;100.00;98197.88;5092253;28;20138;-34
2024/01/17 07:38:25;;;;;;;6.47;4.07;;;;;;;-1.51;100.00;98189.50;5091763;28;20052;-33
2024/01/17 07:40:50;;;;;;;6.82;4.03;;;;;;;-1.25;100.00;98200.03;5093302;28;20040;-33
2024/01/17 07:43:17;;;;;;;7.10;4.40;;;;;;;-1.39;100.00;98186.53;5093527;28;20035;-33
2024/01/17 07:45:42;;;;;;;5.90;4.18;;;;;;;-1.39;100.00;98173.47;5092465;28;20044;-34
2024/01/17 07:48:08;;;;;;;5.75;4.35;;;;;;;-1.48;100.00;98166.53;5093124;28;20035;-34
2024/01/17 07:50:33;;;;;;;7.25;4.22;;;;;;;-1.07;100.00;98159.06;5093465;28;20145;-34
2024/01/17 07:53:00;;;;;;;8.93;5.32;;;;;;;-1.25;100.00;98151.22;5093408;28;20040;-34
2024/01/17 07:55:26;;;;;;;8.40;5.22;;;;;;;-1.16;100.00;98146.91;5093325;28;20047;-33
2024/01/17 07:57:51;;;;;;;7.40;5.05;;;;;;;-1.31;100.00;98149.22;5092947;28;20044;-36
2024/01/17 08:00:18;;;;;;;8.95;4.72;;;;;;;-0.71;100.00;98143.34;5093077;28;20040;-35
2024/01/17 08:02:43;;;;;;;9.85;5.28;;;;;;;-0.99;100.00;98151.28;5093161;28;20395;-35
2024/01/17 08:05:11;;;;;;;8.10;5.45;;;;;;;-0.88;100.00;98137.16;5093274;28;20036;-35
2024/01/17 08:07:36;;;;;;;9.20;5.47;;;;;;;-0.80;100.00;98141.63;5093082;28;20032;-33
2024/01/17 08:10:02;;;;;;;5.78;4.60;;;;;;;-0.68;100.00;98138.63;5093208;28;20403;-34
2024/01/17 08:12:27;;;;;;;7.05;5.25;;;;;;;-1.14;100.00;98131.91;5093108;28;20032;-34
2024/01/17 08:14:53;;;;;;;7.05;5.32;;;;;;;-1.13;100.00;98130.91;5093092;28;20094;-34
2024/01/17 08:17:18;;;;;;;13.50;6.93;;;;;;;-0.71;100.00;98122.44;5092985;28;20040;-33
2024/01/17 08:19:43;;;;;;;6.03;5.28;;;;;;;-0.86;100.00;98120.34;5092987;28;20036;-34
2024/01/17 08:22:10;;;;;;;10.05;5.78;;;;;;;-1.12;100.00;98114.28;5092935;28;20411;-33
2024/01/17 08:24:35;;;;;;;7.75;5.70;;;;;;;-1.05;100.00;98106.66;5098818;28;20048;-34
2024/01/17 08:27:00;;;;;;;8.10;5.85;;;;;;;-0.96;100.00;98103.97;5100133;28;20039;-34
2024/01/17 08:29:26;;;;;;;10.07;5.53;;;;;;;-1.17;100.00;98091.22;5092844;28;20036;-36
2024/01/17 08:31:52;;;;;;;7.88;5.45;;;;;;;-1.24;100.00;98098.03;5092811;28;20149;-33
2024/01/17 08:34:20;;;;;;;8.90;5.22;;;;;;;-0.80;100.00;98094.56;5092823;28;20039;-33
2024/01/17 08:36:45;;;;;;;8.60;5.93;;;;;;;-0.60;100.00;98088.16;5085162;28;20043;-33
2024/01/17 08:39:11;;;;;;;8.57;6.22;;;;;;;-0.55;100.00;98088.53;5082355;28;20028;-34
2024/01/17 08:41:37;;;;;;;7.82;5.97;;;;;;;-0.65;100.00;98079.97;5079773;28;20032;-34
2024/01/17 08:44:02;;;;;;;8.27;5.75;;;;;;;-0.54;100.00;98077.09;5083049;28;20036;-33
2024/01/17 08:46:30;;;;;;;8.27;5.82;;;;;;;-0.40;100.00;98063.41;5081826;28;20036;-34
2024/01/17 08:48:56;;;;;;;8.05;6.03;;;;;;;-0.41;100.00;98056.53;5080738;28;20127;-33
2024/01/17 08:51:24;;;;;;;8.65;6.38;;;;;;;-0.69;100.00;98042.03;5083021;28;20115;-33
2024/01/17 08:53:49;;;;;;;8.98;6.45;;;;;;;-0.81;100.00;98049.31;5082014;28;20399;-33
2024/01/17 08:56:15;;;;;;;7.97;5.88;;;;;;;-0.76;100.00;98025.34;5080578;28;20032;-33
2024/01/17 08:58:42;;;;;;;9.10;6.10;;;;;;;-0.34;100.00;98027.97;5082719;28;20020;-34
2024/01/17 09:01:10;;;;;;;8.15;5.90;;;;;;;-0.36;100.00;98022.91;5081774;28;20033;-34
2024/01/17 09:03:36;;;;;;;9.95;6.95;;;;;;;-0.56;100.00;98011.03;5080848;28;20040;-34
2024/01/17 09:06:02;;;;;;;9.52;6.70;;;;;;;0.05;100.00;98020.38;5080598;28;20038;-34
2024/01/17 09:08:28;;;;;;;7.00;6.03;;;;;;;-0.49;100.00;98014.66;5081554;28;20039;-35
2024/01/17 09:10:54;;;;;;;8.18;6.07;;;;;;;0.03;100.00;98006.66;5082297;28;20021;-35
2024/01/17 09:13:19;;;;;;;6.72;5.50;;;;;;;-0.86;100.00;98004.50;5079606;28;20032;-36
2024/01/17 09:15:45;;;;;;;10.60;5.60;;;;;;;-0.32;100.00;98003.28;5083140;28;20115;-34
2024/01/17 09:18:10;;;;;;;9.68;5.95;;;;;;;-0.61;100.00;97992.38;5081131;28;20116;-36
2024/01/17 09:20:36;;;;;;;9.93;5.70;;;;;;;-0.87;100.00;97984.59;5078140;28;20041;-43
2024/01/17 09:23:01;;;;;;;8.10;5.78;;;;;;;-0.46;100.00;97982.94;5081350;28;20043;-34
2024/01/17 09:25:27;;;;;;;7.13;6.10;;;;;;;-0.18;100.00;97977.50;5082623;28;20042;-35
2024/01/17 09:27:53;;;;;;;6.95;5.43;;;;;;;0.11;100.00;97974.41;5079094;28;20036;-34
2024/01/17 09:30:18;;;;;;;10.00;6.63;;;;;;;-0.07;100.00;97964.09;5081839;28;20036;-33
2024/01/17 09:32:47;;;;;;;8.68;5.90;;;;;;;0.09;100.00;97963.31;5082023;28;20029;-35
2024/01/17 09:35:16;;;;;;;9.13;6.28;;;;;;;0.14;100.00;97967.06;5071719;28;20466;-34
2024/01/17 09:37:42;;;;;;;8.25;6.13;;;;;;;0.16;100.00;97954.63;5081160;28;20377;-33
2024/01/17 09:40:08;;;;;;;7.47;6.10;;;;;;;0.35;100.00;97965.78;5080543;28;20086;-36
2024/01/17 09:42:34;;;;;;;9.50;6.70;;;;;;;0.54;100.00;97962.81;5081211;28;20035;-36
2024/01/17 09:45:03;;;;;;;8.27;6.05;;;;;;;0.18;100.00;97950.03;5079670;28;20399;-34
2024/01/17 09:47:32;;;;;;;8.75;6.57;;;;;;;-0.43;100.00;97935.56;5080718;28;20093;-33
2024/01/17 09:49:58;;;;;;;7.22;5.70;;;;;;;-0.25;100.00;97932.84;5080683;28;20024;-34
2024/01/17 09:52:23;;;;;;;9.95;6.68;;;;;;;-0.12;100.00;97912.25;5080075;28;20473;-34
2024/01/17 09:54:51;;;;;;;10.00;6.85;;;;;;;0.01;100.00;97911.75;5082011;28;20040;-34
2024/01/17 09:57:25;;;;;;;8.80;6.07;;;;;;;0.07;100.00;97903.25;5080077;28;20119;-35
2024/01/17 10:00:06;;;;;;;10.52;6.45;;;;;;;0.34;100.00;97899.47;5080194;28;20530;-35
2024/01/17 10:02:35;;;;;;;8.27;5.85;;;;;;;0.37;100.00;97896.50;5080173;28;20040;-35
2024/01/17 10:05:01;;;;;;;8.57;6.25;;;;;;;0.40;100.00;97890.97;5081655;28;20028;-34
2024/01/17 10:07:26;;;;;;;7.70;6.43;;;;;;;0.36;100.00;97891.44;5082457;28;20032;-35
2024/01/17 10:09:52;;;;;;;8.60;6.60;;;;;;;0.40;100.00;97892.75;5087862;28;20040;-35
2024/01/17 10:12:19;;;;;;;11.32;6.47;;;;;;;0.31;100.00;97873.59;5084605;28;20103;-35
2024/01/17 10:14:45;;;;;;;6.78;5.82;;;;;;;0.54;100.00;97869.31;5085089;28;20051;-34
2024/01/17 10:17:13;;;;;;;9.35;5.43;;;;;;;-0.23;100.00;97854.97;5083397;28;20032;-35
2024/01/17 10:19:39;;;;;;;7.07;5.50;;;;;;;0.07;100.00;97853.53;5084030;28;20041;-35
2024/01/17 10:22:09;;;;;;;6.75;5.38;;;;;;;0.33;100.00;97832.38;5084237;28;20387;-34
2024/01/17 10:24:36;;;;;;;8.05;6.07;;;;;;;0.59;100.00;97828.69;5085858;28;20036;-35
2024/01/17 10:27:02;;;;;;;7.80;6.30;;;;;;;0.17;100.00;97816.69;5088670;28;20036;-35
2024/01/17 10:29:30;;;;;;;11.90;6.20;;;;;;;0.57;100.00;97813.13;5087752;28;20282;-35
2024/01/17 10:31:59;;;;;;;7.85;5.65;;;;;;;0.18;100.00;97810.44;5085353;28;20032;-36
2024/01/17 10:34:28;;;;;;;8.02;5.55;;;;;;;0.32;100.00;97817.63;5084768;28;20040;-34
2024/01/17 10:36:54;;;;;;;10.35;6.10;;;;;;;0.02;100.00;97808.69;5081812;28;20436;-34
2024/01/17 10:39:21;;;;;;;7.45;5.35;;;;;;;-0.10;100.00;97804.78;5091803;28;20035;-35
2024/01/17 10:41:51;;;;;;;10.88;7.05;;;;;;;0.08;100.00;97812.44;5094798;28;20032;-34
2024/01/17 10:44:20;;;;;;;9.18;6.57;;;;;;;-0.11;100.00;97817.03;5094729;28;20039;-35
2024/01/17 10:46:52;;;;;;;9.35;6.80;;;;;;;-0.09;100.00;97803.78;5094520;28;20047;-34
2024/01/17 10:49:23;;;;;;;12.25;7.32;;;;;;;0.11;100.00;97812.91;5094505;28;20032;-35
2024/01/17 10:51:53;;;;;;;8.57;6.72;;;;;;;0.21;100.00;97803.09;5094603;28;20070;-35
2024/01/17 10:54:24;;;;;;;9.23;7.38;;;;;;;-0.05;100.00;97798.06;5094547;28;20047;-35
2024/01/17 10:56:53;;;;;;;7.75;6.95;;;;;;;0.24;100.00;97794.91;5095062;28;20383;-34
2024/01/17 10:59:20;;;;;;;9.43;7.63;;;;;;;0.35;100.00;97796.34;5097454;28;20027;-35
2024/01/17 11:01:48;;;;;;;10.60;7.35;;;;;;;0.24;100.00;97799.31;5094613;28;20039;-34
2024/01/17 11:04:18;;;;;;;8.75;7.18;;;;;;;0.16;100.00;97797.53;5094552;28;20488;-35
2024/01/17 11:06:44;;;;;;;10.88;8.20;;;;;;;-0.02;100.00;97781.19;5094235;28;20043;-35
2024/01/17 11:09:11;;;;;;;9.35;7.47;;;;;;;0.19;100.00;97786.72;5094308;28;20089;-35
2024/01/17 11:11:39;;;;;;;9.90;7.75;;;;;;;0.34;100.00;97792.09;5094707;28;20046;-35
2024/01/17 11:14:07;;;;;;;10.80;8.60;;;;;;;0.25;100.00;97786.03;5099610;28;20042;-35
2024/01/17 11:16:34;;;;;;;10.82;7.63;;;;;;;0.21;100.00;97766.44;5100070;28;20036;-35
2024/01/17 11:19:02;;;;;;;7.65;6.88;;;;;;;-0.04;100.00;97751.78;5102933;28;20075;-35
2024/01/17 11:21:29;;;;;;;11.27;7.53;;;;;;;0.03;100.00;97751.91;5100025;28;20156;-35
2024/01/17 11:24:20;;;;;;;10.82;7.57;;;;;;;0.17;100.00;97756.47;5083094;28;20365;-35
2024/01/17 11:27:12;;;;;;;9.45;7.40;;;;;;;0.14;100.00;97744.53;5082804;28;20549;-34
2024/01/17 11:29:57;;;;;;;10.23;7.53;;;;;;;0.55;100.00;97733.91;5080478;28;20119;-35
2024/01/17 11:32:46;;;;;;;8.13;6.70;;;;;;;0.42;100.00;97723.16;5082366;28;20115;-35
2024/01/17 11:35:43;;;;;;;9.13;7.13;;;;;;;0.58;100.00;97720.44;5083673;28;20391;-35
2024/01/17 11:38:24;;;;;;;7.60;6.53;;;;;;;0.92;100.00;97700.97;5082848;28;20036;-35
2024/01/17 11:40:53;;;;;;;8.38;6.68;;;;;;;0.91;100.00;97696.69;5082918;28;20033;-35
2024/01/17 11:43:19;;;;;;;9.80;6.05;;;;;;;0.44;100.00;97684.50;5081936;28;20131;-35
2024/01/17 11:45:47;;;;;;;6.72;5.45;;;;;;;0.44;100.00;97685.31;5083707;28;20020;-35
2024/01/17 11:48:31;;;;;;;7.43;6.00;;;;;;;0.51;100.00;97667.13;5083021;28;20028;-35
2024/01/17 11:51:15;;;;;;;6.60;5.90;;;;;;;0.71;100.00;97663.06;5083967;28;20174;-35
2024/01/17 11:53:50;;;;;;;7.43;5.95;;;;;;;0.56;100.00;97659.56;5084031;28;20395;-35
2024/01/17 11:56:20;;;;;;;7.40;5.45;;;;;;;0.61;100.00;97657.25;5083562;28;20032;-35
2024/01/17 11:58:45;;;;;;;6.78;5.75;;;;;;;0.35;100.00;97643.63;5081883;28;20491;-34
2024/01/17 12:01:14;;;;;;;11.38;7.45;;;;;;;0.57;100.00;97627.13;5082663;28;20117;-35
2024/01/17 12:03:41;;;;;;;12.32;8.70;;;;;;;0.87;100.00;97635.13;5086946;28;20032;-35
2024/01/17 12:06:08;;;;;;;11.07;8.30;;;;;;;0.85;100.00;97634.47;5093084;28;20059;-35
2024/01/17 12:08:35;;;;;;;12.27;8.33;;;;;;;0.56;100.00;97635.16;5093018;28;20039;-35
2024/01/17 12:11:01;;;;;;;6.80;5.72;;;;;;;0.35;100.00;97633.16;5093205;28;20032;-35
2024/01/17 12:13:27;;;;;;;7.65;6.07;;;;;;;0.53;100.00;97631.09;5093051;28;20024;-35
2024/01/17 12:15:57;;;;;;;7.95;6.00;;;;;;;0.91;100.00;97628.53;5092787;28;20042;-35
2024/01/17 12:18:24;;;;;;;10.25;6.97;;;;;;;1.11;100.00;97613.13;5092692;28;20120;-36
2024/01/17 12:20:50;;;;;;;8.63;6.80;;;;;;;0.80;100.00;97608.81;5092815;28;20032;-36
2024/01/17 12:23:21;;;;;;;7.65;6.88;;;;;;;1.06;100.00;97603.19;5092818;28;20789;-36
2024/01/17 12:25:48;;;;;;;9.75;7.43;;;;;;;1.53;100.00;97581.09;5092784;28;20039;-36
2024/01/17 12:28:18;;;;;;;8.23;6.50;;;;;;;1.05;100.00;97567.50;5092474;28;20403;-36
2024/01/17 12:31:00;;;;;;;7.88;6.22;;;;;;;1.52;100.00;97554.06;5092307;28;20031;-36
2024/01/17 12:33:27;;;;;;;8.25;6.35;;;;;;;1.61;100.00;97545.06;5092681;28;20046;-36
2024/01/17 12:35:54;;;;;;;11.10;7.60;;;;;;;1.62;100.00;97535.41;5092647;28;20085;-36
2024/01/17 12:38:20;;;;;;;7.85;6.88;;;;;;;1.59;100.00;97533.16;5092487;28;20059;-37
2024/01/17 12:40:47;;;;;;;9.25;7.00;;;;;;;1.92;100.00;97528.31;5092486;28;20032;-36
2024/01/17 12:43:13;;;;;;;9.93;7.97;;;;;;;1.48;100.00;97526.53;5092630;28;20051;-35
2024/01/17 12:45:39;;;;;;;6.97;5.93;;;;;;;1.35;100.00;97527.16;5092463;28;20032;-36
2024/01/17 12:48:05;;;;;;;8.13;6.28;;;;;;;1.25;100.00;97545.00;5092117;28;20108;-36
2024/01/17 12:50:31;;;;;;;7.35;6.13;;;;;;;1.05;100.00;97543.91;5092406;28;20028;-36
2024/01/17 12:52:58;;;;;;;8.75;7.03;;;;;;;1.09;100.00;97539.91;5091490;28;20044;-35
2024/01/17 12:55:24;;;;;;;7.75;6.30;;;;;;;1.13;100.00;97530.69;5092027;28;20059;-35
2024/01/17 12:57:50;;;;;;;8.25;6.28;;;;;;;1.01;100.00;97522.44;5091763;28;20043;-35
2024/01/17 13:00:20;;;;;;;7.13;6.28;;;;;;;0.95;100.00;97525.78;5092298;28;20426;-35
2024/01/17 13:02:46;;;;;;;7.15;6.18;;;;;;;0.93;100.00;97542.69;5092331;28;20368;-35
2024/01/17 13:05:12;;;;;;;7.93;6.63;;;;;;;0.86;100.00;97541.78;5092079;28;20080;-35
2024/01/17 13:07:41;;;;;;;7.78;6.38;;;;;;;1.05;100.00;97512.44;5091544;28;20395;-36
2024/01/17 13:10:14;;;;;;;9.13;6.68;;;;;;;0.93;100.00;97511.25;5089522;28;20410;-36
2024/01/17 13:12:39;;;;;;;8.00;6.82;;;;;;;1.00;100.00;97512.16;5091997;28;20058;-35
2024/01/17 13:15:09;;;;;;;8.48;6.25;;;;;;;0.87;100.00;97512.75;5091999;28;20040;-35
2024/01/17 13:17:38;;;;;;;7.75;6.60;;;;;;;0.91;100.00;97531.53;5091629;28;20032;-36
2024/01/17 13:20:15;;;;;;;7.35;6.07;;;;;;;0.97;100.00;97520.34;5091959;28;20031;-35
2024/01/17 13:22:41;;;;;;;8.43;6.85;;;;;;;1.03;100.00;97528.31;5091960;28;20036;-34
2024/01/17 13:25:07;;;;;;;8.82;7.40;;;;;;;0.89;100.00;97508.16;5092018;28;20032;-35
2024/01/17 13:27:32;;;;;;;9.00;6.10;;;;;;;0.72;100.00;97483.09;5091993;28;20150;-34
2024/01/17 13:29:59;;;;;;;6.90;6.03;;;;;;;0.83;100.00;97466.91;5091863;28;20559;-34
2024/01/17 13:32:25;;;;;;;7.43;5.50;;;;;;;0.34;100.00;97429.91;5091822;28;20036;-35
2024/01/17 13:34:51;;;;;;;8.23;6.35;;;;;;;1.01;100.00;97448.22;5091844;28;20124;-34
2024/01/17 13:37:20;;;;;;;5.97;5.20;;;;;;;0.79;100.00;97416.69;5091596;28;20032;-36
2024/01/17 13:39:45;;;;;;;5.85;5.25;;;;;;;0.88;100.00;97398.25;5091829;28;20071;-34
2024/01/17 13:42:12;;;;;;;7.07;5.63;;;;;;;1.22;100.00;97398.50;5092024;28;20052;-35
2024/01/17 13:44:37;;;;;;;6.63;5.65;;;;;;;1.47;100.00;97408.66;5095777;28;20044;-34
2024/01/17 13:47:03;;;;;;;5.75;5.05;;;;;;;1.52;100.00;97411.56;5095823;28;20124;-35
2024/01/17 13:49:28;;;;;;;7.55;5.80;;;;;;;1.56;100.00;97392.63;5095652;28;20039;-35
2024/01/17 13:51:55;;;;;;;5.38;4.88;;;;;;;1.26;100.00;97391.88;5095732;28;20024;-35
2024/01/17 13:54:21;;;;;;;6.15;5.07;;;;;;;1.67;100.00;97404.44;5095778;28;20447;-35
2024/01/17 13:56:47;;;;;;;5.88;5.35;;;;;;;1.71;100.00;97383.91;5095239;28;20128;-35
2024/01/17 13:59:12;;;;;;;7.03;5.82;;;;;;;1.49;100.00;97406.66;5095555;28;20089;-35
2024/01/17 14:01:37;;;;;;;6.90;6.18;;;;;;;1.52;100.00;97382.69;5095450;28;20044;-34
2024/01/17 14:04:04;;;;;;;6.93;5.43;;;;;;;1.25;100.00;97410.44;5095505;28;20118;-34
2024/01/17 14:06:30;;;;;;;7.38;5.82;;;;;;;1.32;100.00;97417.38;5094933;28;20467;-34
2024/01/17 14:08:55;;;;;;;6.93;5.88;;;;;;;1.08;100.00;97404.56;5095398;28;20046;-35
2024/01/17 14:11:21;;;;;;;6.70;5.30;;;;;;;1.02;100.00;97415.78;5095441;28;20055;-34
2024/01/17 14:13:46;;;;;;;7.20;5.97;;;;;;;1.29;100.00;97407.25;5095490;28;20050;-34
2024/01/17 14:16:12;;;;;;;7.30;5.80;;;;;;;0.64;100.00;97379.16;5095324;28;20040;-35
2024/01/17 14:18:37;;;;;;;8.98;6.60;;;;;;;1.18;100.00;97378.06;5094912;28;20036;-35
2024/01/17 14:21:03;;;;;;;8.25;6.95;;;;;;;1.10;100.00;97365.84;5095005;28;20047;-34
2024/01/17 14:23:29;;;;;;;7.28;6.60;;;;;;;1.33;100.00;97361.31;5095236;28;20111;-34
2024/01/17 14:25:54;;;;;;;7.15;6.45;;;;;;;0.67;100.00;97333.47;5095056;28;20127;-35
2024/01/17 14:28:20;;;;;;;7.53;6.13;;;;;;;0.36;100.00;97325.78;5094790;28;20127;-35
2024/01/17 14:30:46;;;;;;;8.40;6.60;;;;;;;0.71;100.00;97332.91;5095069;28;20062;-34
2024/01/17 14:33:12;;;;;;;7.65;6.65;;;;;;;0.76;100.00;97333.19;5094674;28;20085;-35
2024/01/17 14:35:37;;;;;;;7.93;6.45;;;;;;;1.05;100.00;97326.28;5094525;28;20038;-35
2024/01/17 14:38:03;;;;;;;8.27;6.40;;;;;;;1.29;100.00;97304.97;5094363;28;20093;-35
2024/01/17 14:40:28;;;;;;;8.80;6.47;;;;;;;1.36;100.00;97324.19;5094712;28;20036;-34
2024/01/17 14:42:53;;;;;;;7.25;5.65;;;;;;;1.18;100.00;97321.19;5094855;28;20052;-35
2024/01/17 14:45:19;;;;;;;7.63;6.38;;;;;;;0.73;100.00;97298.69;5094783;28;20127;-34
2024/01/17 14:47:44;;;;;;;6.28;5.47;;;;;;;1.30;100.00;97309.22;5094403;28;20062;-35
2024/01/17 14:50:11;;;;;;;7.22;5.45;;;;;;;1.49;100.00;97304.34;5093464;28;20065;-37
2024/01/17 14:52:37;;;;;;;7.45;5.28;;;;;;;1.49;100.00;97296.47;5094773;28;20032;-37
2024/01/17 14:55:06;;;;;;;6.82;5.53;;;;;;;1.39;100.00;97301.25;5093935;28;20048;-37
2024/01/17 14:57:32;;;;;;;6.85;5.78;;;;;;;0.88;100.00;97301.28;5094575;28;20032;-37
2024/01/17 14:59:57;;;;;;;7.18;5.68;;;;;;;1.14;100.00;97288.47;5094392;28;20040;-34
2024/01/17 15:02:24;;;;;;;10.38;6.82;;;;;;;1.19;100.00;97293.16;5094345;28;20040;-34
2024/01/17 15:04:50;;;;;;;7.55;6.20;;;;;;;1.16;100.00;97281.22;5094328;28;20054;-34
2024/01/17 15:07:15;;;;;;;7.80;6.43;;;;;;;0.89;100.00;97279.31;5094069;28;20491;-37
2024/01/17 15:09:41;;;;;;;6.57;5.82;;;;;;;1.01;100.00;97262.09;5094288;28;20036;-35
2024/01/17 15:12:06;;;;;;;6.28;5.68;;;;;;;1.00;100.00;97278.84;5094471;28;20039;-37
2024/01/17 15:14:32;;;;;;;7.07;5.85;;;;;;;0.80;100.00;97249.78;5094165;28;20132;-34
2024/01/17 15:16:58;;;;;;;7.13;5.88;;;;;;;1.34;100.00;97255.38;5093903;28;20063;-34
2024/01/17 15:19:24;;;;;;;6.45;5.57;;;;;;;1.02;100.00;97255.88;5094035;28;20123;-34
2024/01/17 15:21:50;;;;;;;7.90;6.13;;;;;;;1.27;100.00;97258.94;5093944;28;20138;-35
2024/01/17 15:24:16;;;;;;;8.30;6.05;;;;;;;1.31;100.00;97245.28;5094052;28;20039;-35
2024/01/17 15:26:42;;;;;;;8.20;6.38;;;;;;;1.55;100.00;97214.41;5093738;28;20403;-35
2024/01/17 15:29:07;;;;;;;8.43;6.65;;;;;;;1.29;100.00;97194.81;5094030;28;20039;-34
2024/01/17 15:31:34;;;;;;;8.57;6.57;;;;;;;1.01;100.00;97193.94;5093977;28;20124;-35
2024/01/17 15:33:59;;;;;;;7.25;6.43;;;;;;;1.09;100.00;97181.53;5093957;28;20040;-37
2024/01/17 15:36:25;;;;;;;8.80;7.07;;;;;;;1.25;100.00;97184.91;5093753;28;20074;-34
2024/01/17 15:38:52;;;;;;;8.15;6.32;;;;;;;1.16;100.00;97176.34;5093683;28;20047;-35
2024/01/17 15:41:18;;;;;;;10.77;8.13;;;;;;;1.28;100.00;97174.84;5093709;28;20040;-34
2024/01/17 15:43:44;;;;;;;15.02;9.27;;;;;;;1.07;100.00;97177.47;5093584;28;20036;-35
2024/01/17 15:46:12;;;;;;;13.45;8.80;;;;;;;1.17;100.00;97179.78;5093523;28;20067;-37
2024/01/17 15:48:38;;;;;;;11.07;7.60;;;;;;;1.03;100.00;97191.94;5093402;28;20047;-35
2024/01/17 15:51:05;;;;;;;10.15;7.57;;;;;;;1.30;100.00;97178.09;5093418;28;20484;-37
2024/01/17 15:53:33;;;;;;;10.52;7.28;;;;;;;1.30;100.00;97175.47;5093366;28;20036;-35
2024/01/17 15:56:01;;;;;;;8.98;6.70;;;;;;;1.36;100.00;97166.03;5093366;28;20421;-35
2024/01/17 15:58:27;;;;;;;8.98;6.60;;;;;;;1.04;100.00;97155.09;5091734;28;20502;-35
2024/01/17 16:00:52;;;;;;;8.30;6.05;;;;;;;1.13;100.00;97147.91;5093182;28;20040;-35
2024/01/17 16:03:18;;;;;;;9.10;6.28;;;;;;;1.10;100.00;97135.16;5093344;28;20036;-35
2024/01/17 16:05:43;;;;;;;7.88;6.18;;;;;;;1.07;100.00;97144.22;5092248;28;20044;-35
2024/01/17 16:08:09;;;;;;;12.27;6.93;;;;;;;0.89;100.00;97145.66;5093019;28;20042;-35
2024/01/17 16:10:36;;;;;;;8.70;6.20;;;;;;;0.91;100.00;97146.25;5089545;28;20043;-34
2024/01/17 16:13:03;;;;;;;7.78;6.70;;;;;;;0.96;100.00;97143.91;5081022;28;20123;-35
2024/01/17 16:15:28;;;;;;;8.05;6.25;;;;;;;0.84;100.00;97135.72;5081999;28;20032;-34
2024/01/17 16:17:53;;;;;;;7.68;6.68;;;;;;;0.92;100.00;97142.66;5083250;28;20054;-35
2024/01/17 16:20:20;;;;;;;7.25;6.50;;;;;;;0.87;100.00;97137.16;5081737;28;20036;-35
2024/01/17 16:22:46;;;;;;;10.48;6.38;;;;;;;0.75;100.00;97137.66;5082279;28;20032;-34
2024/01/17 16:25:12;;;;;;;8.13;6.93;;;;;;;0.83;100.00;97141.97;5083431;28;20395;-35
2024/01/17 16:27:39;;;;;;;10.07;7.32;;;;;;;0.78;100.00;97139.91;5081077;28;20028;-34
2024/01/17 16:30:08;;;;;;;9.82;6.63;;;;;;;0.84;100.00;97145.38;5082262;28;20061;-34
2024/01/17 16:32:35;;;;;;;7.43;6.05;;;;;;;0.61;100.00;97158.66;5083194;28;20044;-34
2024/01/17 16:35:01;;;;;;;7.07;5.95;;;;;;;0.66;100.00;97157.13;5081470;28;20414;-35
2024/01/17 16:37:27;;;;;;;7.75;6.43;;;;;;;1.01;100.00;97142.34;5081549;28;20040;-35
2024/01/17 16:39:53;;;;;;;10.55;7.03;;;;;;;1.00;100.00;97147.78;5083120;28;20040;-35
2024/01/17 16:42:18;;;;;;;6.53;5.75;;;;;;;1.08;100.00;97153.69;5081095;28;20041;-35
2024/01/17 16:44:43;;;;;;;7.32;5.97;;;;;;;0.93;100.00;97149.53;5080886;28;20032;-35
2024/01/17 16:47:10;;;;;;;10.48;6.38;;;;;;;1.18;100.00;97158.63;5082369;28;20032;-35
2024/01/17 16:49:36;;;;;;;7.30;6.50;;;;;;;1.22;100.00;97164.28;5081079;28;20040;-35